NO-0022 weather

Sølenstua Airfield
Rendalen, Hedmark, Norway

Public forecast

Using degrees Celsius for public forecast. Weather courtesy of forecast.io.

METAR (pilot weather report)

Closest report is Røros Airport, 45.8 nm (84.9 km) NNW. Retrieved 2019/07/17 21:20 UTC (19 minutes ago):

ENRO 172120Z AUTO 34004KT 320V020 9999NDV BKN080/// 11/07 Q1010

TAF (pilot weather forecast)

Closest forecast is Trondheim Airport Værnes, 99.8 nm (184.9 km) NNW. Retrieved 2019/07/17 18:59 UTC (3 hours ago):

TAF ENVA 171700Z 1718/1818 26010KT 9999 SCT030 BECMG 1718/1720 12007KT BECMG 1808/1810 26010KT PROB30 TEMPO 1811/1818 TSRA BKN025CB